Time;durP1;ratioP1;P1;durP2;ratioP2;P2;SDS_P1;SDS_P2;PMS_P1;PMS_P2;Temp;Humidity;BMP_temperature;BMP_pressure;BME280_temperature;BME280_humidity;BME280_pressure;Samples;Min_cycle;Max_cycle;Signal;HPM_P1;HPM_P2
2023/02/01 00:01:52;;;;;;;22.20;8.60;;;;;;;5.37;100.00;99246.66;108413;1266;69477;-93
2023/02/01 00:04:40;;;;;;;16.70;9.50;;;;;;;5.39;100.00;99244.35;107523;1263;1165659;-95
2023/02/01 00:07:11;;;;;;;23.30;9.80;;;;;;;5.60;100.00;99240.73;108468;1252;92182;-65
2023/02/01 00:09:41;;;;;;;20.10;9.70;;;;;;;5.75;100.00;99235.22;107977;1254;60551;-64
2023/02/01 00:12:07;;;;;;;20.30;9.40;;;;;;;5.95;100.00;99231.48;108052;1254;72574;-64
2023/02/01 00:14:38;;;;;;;18.30;8.80;;;;;;;5.83;100.00;99231.99;108039;1254;71207;-63
2023/02/01 00:17:06;;;;;;;21.10;9.30;;;;;;;5.99;100.00;99231.86;108030;1254;73305;-64
2023/02/01 00:19:34;;;;;;;17.70;9.20;;;;;;;6.28;100.00;99225.52;108038;1254;60291;-65
2023/02/01 00:22:00;;;;;;;18.40;8.40;;;;;;;6.35;100.00;99224.40;108045;1254;61219;-64
2023/02/01 00:24:28;;;;;;;24.00;8.70;;;;;;;6.16;100.00;99222.26;108060;1254;73045;-63
2023/02/01 00:26:55;;;;;;;18.10;9.20;;;;;;;5.88;100.00;99225.92;108060;1257;71333;-64
2023/02/01 00:29:23;;;;;;;21.90;9.10;;;;;;;5.87;100.00;99225.08;108046;1254;70947;-64
2023/02/01 00:31:51;;;;;;;21.30;9.30;;;;;;;5.80;100.00;99224.81;107954;1254;59638;-62
2023/02/01 00:34:22;;;;;;;18.10;8.80;;;;;;;5.27;100.00;99226.59;108080;1254;59123;-63
2023/02/01 00:36:50;;;;;;;22.60;10.50;;;;;;;5.12;100.00;99223.19;108069;1254;73554;-64
2023/02/01 00:39:17;;;;;;;23.90;9.80;;;;;;;5.09;100.00;99219.80;108186;1254;71498;-64
2023/02/01 00:41:44;;;;;;;22.20;10.40;;;;;;;5.02;100.00;99219.33;107950;1259;73634;-66
2023/02/01 00:44:11;;;;;;;19.80;9.80;;;;;;;4.92;100.00;99223.09;108120;1254;60200;-64
2023/02/01 00:46:38;;;;;;;24.00;10.80;;;;;;;5.00;100.00;99219.02;108147;1254;60052;-64
2023/02/01 00:49:07;;;;;;;21.70;10.10;;;;;;;5.22;100.00;99223.78;108028;1254;72028;-64
2023/02/01 00:51:34;;;;;;;18.70;10.50;;;;;;;5.36;100.00;99225.30;107957;1253;69115;-65
2023/02/01 00:54:00;;;;;;;25.00;11.20;;;;;;;5.26;100.00;99228.55;108070;1254;73038;-64
2023/02/01 00:56:27;;;;;;;23.00;11.30;;;;;;;5.22;100.00;99229.70;107982;1254;59762;-64
2023/02/01 00:58:54;;;;;;;22.10;10.20;;;;;;;5.23;100.00;99233.33;107988;1254;61183;-65
2023/02/01 01:01:22;;;;;;;26.40;11.10;;;;;;;5.21;100.00;99232.52;107837;1255;72743;-66
2023/02/01 01:03:51;;;;;;;22.50;9.60;;;;;;;4.74;100.00;99231.05;107921;1258;70711;-65
2023/02/01 01:06:23;;;;;;;20.50;10.10;;;;;;;4.38;100.00;99231.68;107783;1257;72857;-65
2023/02/01 01:08:54;;;;;;;20.90;9.80;;;;;;;4.41;100.00;99232.13;107949;1257;62338;-65
2023/02/01 01:11:26;;;;;;;15.90;9.70;;;;;;;4.43;100.00;99235.36;107987;1257;59819;-65
2023/02/01 01:13:55;;;;;;;19.00;9.90;;;;;;;4.34;100.00;99237.86;107958;1259;73860;-65
2023/02/01 01:16:23;;;;;;;22.00;10.70;;;;;;;4.49;100.00;99235.94;107990;1256;71243;-65
2023/02/01 01:18:49;;;;;;;19.30;10.10;;;;;;;4.49;100.00;99234.38;107862;1257;72098;-65
2023/02/01 01:21:16;;;;;;;28.50;9.90;;;;;;;4.67;100.00;99232.33;107950;1256;60216;-65
2023/02/01 01:23:43;;;;;;;21.30;10.30;;;;;;;4.70;100.00;99234.66;107990;1256;60665;-65
2023/02/01 01:26:22;;;;;;;25.30;10.20;;;;;;;4.59;100.00;99238.77;107997;1258;74263;-65
2023/02/01 01:28:49;;;;;;;19.10;9.60;;;;;;;4.44;100.00;99237.96;108025;1254;71522;-65
2023/02/01 01:31:16;;;;;;;22.70;9.90;;;;;;;4.55;100.00;99234.55;108045;1254;71905;-65
2023/02/01 01:33:47;;;;;;;19.60;9.70;;;;;;;4.46;100.00;99235.63;108005;1254;62033;-65
2023/02/01 01:36:14;;;;;;;21.60;9.30;;;;;;;4.59;100.00;99234.61;108009;1254;60454;-65
2023/02/01 01:38:41;;;;;;;23.50;10.60;;;;;;;4.58;100.00;99235.86;108027;1254;74312;-65
2023/02/01 01:41:11;;;;;;;26.60;11.10;;;;;;;4.43;100.00;99235.38;107977;1254;71279;-66
2023/02/01 01:43:50;;;;;;;21.90;11.10;;;;;;;4.29;100.00;99236.08;108051;1254;73540;-65
2023/02/01 01:46:23;;;;;;;25.10;10.90;;;;;;;4.14;100.00;99233.70;108006;1259;62232;-64
2023/02/01 01:48:53;;;;;;;27.20;11.60;;;;;;;4.27;100.00;99235.96;108073;1254;61081;-65
2023/02/01 01:51:21;;;;;;;23.40;10.30;;;;;;;4.42;100.00;99231.25;107966;1256;73324;-64
2023/02/01 01:53:53;;;;;;;21.70;11.60;;;;;;;4.56;100.00;99229.30;107949;1254;69565;-65
2023/02/01 01:56:21;;;;;;;26.60;11.90;;;;;;;4.68;100.00;99227.05;108026;1254;73638;-64
2023/02/01 01:58:48;;;;;;;29.40;12.50;;;;;;;4.61;100.00;99226.04;108074;1254;61907;-65
2023/02/01 02:01:15;;;;;;;35.80;14.20;;;;;;;4.74;100.00;99222.70;107845;1257;61449;-64
2023/02/01 02:03:44;;;;;;;36.40;14.60;;;;;;;4.84;100.00;99219.84;107867;1256;72816;-65
2023/02/01 02:06:20;;;;;;;58.50;18.10;;;;;;;5.10;100.00;99211.26;107761;1258;69015;-64
2023/02/01 02:08:47;;;;;;;53.20;17.00;;;;;;;5.10;100.00;99209.52;107880;1257;70741;-64
2023/02/01 02:11:16;;;;;;;55.30;18.10;;;;;;;4.99;100.00;99207.58;107810;1256;60137;-64
2023/02/01 02:13:44;;;;;;;72.70;19.70;;;;;;;4.88;100.00;99211.17;107739;1262;59525;-66
2023/02/01 02:16:25;;;;;;;81.90;24.20;;;;;;;4.86;100.00;99207.95;107621;1262;74061;-64
2023/02/01 02:19:11;;;;;;;63.40;19.70;;;;;;;5.10;100.00;99206.73;107864;1256;69097;-65
2023/02/01 02:21:53;;;;;;;63.40;20.60;;;;;;;5.39;100.00;99207.61;107796;1256;73861;-67
2023/02/01 02:24:55;;;;;;;58.20;18.90;;;;;;;5.40;100.00;99203.92;107801;1256;61216;-64
2023/02/01 02:27:24;;;;;;;45.50;17.20;;;;;;;5.48;100.00;99199.67;107768;1256;61472;-64
2023/02/01 02:30:07;;;;;;;48.20;18.30;;;;;;;5.52;100.00;99198.69;107839;1260;74033;-65
2023/02/01 02:32:52;;;;;;;46.70;16.40;;;;;;;5.28;100.00;99194.19;107797;1256;69391;-63
2023/02/01 02:35:26;;;;;;;36.30;13.70;;;;;;;5.11;100.00;99195.92;107776;1256;71401;-64
2023/02/01 02:37:54;;;;;;;37.50;14.20;;;;;;;5.28;100.00;99194.38;107717;1256;60278;-64
2023/02/01 02:40:24;;;;;;;30.70;13.30;;;;;;;5.45;100.00;99190.02;107833;1257;61387;-62
2023/02/01 02:49:15;;;;;;;35.20;13.60;;;;;;;5.36;100.00;99188.92;107760;1256;71265;-64
2023/02/01 02:55:05;;;;;;;27.50;10.70;;;;;;;5.45;100.00;99191.93;107733;1256;60592;-64
2023/02/01 03:06:02;;;;;;;23.70;11.30;;;;;;;6.12;100.00;99191.88;107826;1256;62384;-64
2023/02/01 03:08:30;;;;;;;25.70;11.50;;;;;;;6.10;100.00;99191.77;107745;1256;61108;-64
2023/02/01 03:11:04;;;;;;;22.20;9.70;;;;;;;6.36;100.00;99190.90;107987;1256;72025;-63
2023/02/01 03:13:51;;;;;;;29.50;12.90;;;;;;;6.35;100.00;99197.92;107841;1256;69811;-64
2023/02/01 03:16:39;;;;;;;28.30;11.40;;;;;;;6.20;100.00;99200.16;108009;1256;72117;-63
2023/02/01 03:19:08;;;;;;;28.70;12.10;;;;;;;5.58;100.00;99204.06;107821;1257;61261;-63
2023/02/01 03:21:36;;;;;;;28.30;12.70;;;;;;;5.56;91.96;99202.36;107817;1255;59700;-64
2023/02/01 03:24:32;;;;;;;29.50;12.70;;;;;;;6.15;89.57;99203.25;107781;1260;72540;-63
2023/02/01 03:27:05;;;;;;;30.50;13.50;;;;;;;6.40;86.35;99195.80;108001;1256;69696;-63
2023/02/01 03:29:38;;;;;;;26.60;13.10;;;;;;;6.42;79.92;99194.15;107839;1258;73673;-61
2023/02/01 03:32:05;;;;;;;31.90;13.30;;;;;;;6.72;74.28;99191.70;107784;1256;60847;-64
2023/02/01 03:34:33;;;;;;;31.40;14.00;;;;;;;6.80;73.42;99193.16;107792;1257;60046;-63
2023/02/01 03:37:06;;;;;;;36.00;15.30;;;;;;;6.49;73.96;99190.80;107875;1257;72789;-64
2023/02/01 03:40:11;;;;;;;29.80;13.50;;;;;;;6.64;73.62;99189.73;107774;1256;70134;-64
2023/02/01 03:42:41;;;;;;;35.70;15.30;;;;;;;6.85;72.89;99192.98;107764;1257;73772;-64
2023/02/01 03:45:14;;;;;;;32.70;15.90;;;;;;;6.99;72.30;99190.73;107857;1255;59727;-66
2023/02/01 03:47:43;;;;;;;37.90;18.70;;;;;;;6.95;72.01;99186.67;107826;1256;61477;-65
2023/02/01 03:50:12;;;;;;;40.50;19.50;;;;;;;6.98;71.92;99184.30;107838;1256;72910;-65
2023/02/01 03:52:47;;;;;;;41.40;18.00;;;;;;;6.92;71.86;99185.55;107827;1257;69504;-64
2023/02/01 03:55:16;;;;;;;41.50;18.80;;;;;;;6.91;71.53;99186.13;107961;1256;72042;-64
2023/02/01 03:58:08;;;;;;;46.10;19.70;;;;;;;6.92;71.21;99189.24;107874;1256;61051;-63
2023/02/01 04:00:35;;;;;;;39.70;19.00;;;;;;;6.53;72.38;99186.81;108008;1256;59640;-65
2023/02/01 04:03:06;;;;;;;35.60;17.60;;;;;;;6.46;72.94;99186.89;108038;1257;74559;-64
2023/02/01 04:05:33;;;;;;;41.10;20.10;;;;;;;6.28;73.81;99188.70;107884;1255;71541;-65
2023/02/01 04:08:04;;;;;;;35.50;17.60;;;;;;;6.51;73.14;99191.96;108006;1256;73805;-65
2023/02/01 04:10:31;;;;;;;34.70;16.60;;;;;;;6.43;73.38;99193.43;107963;1256;61992;-64
2023/02/01 04:12:58;;;;;;;38.30;18.30;;;;;;;6.45;73.46;99191.08;107976;1256;60638;-65
2023/02/01 04:15:25;;;;;;;34.20;17.50;;;;;;;6.68;72.95;99190.29;107964;1256;72292;-65
2023/02/01 04:17:52;;;;;;;37.90;18.60;;;;;;;6.81;72.49;99187.36;107980;1256;71042;-65
2023/02/01 04:20:19;;;;;;;42.60;18.70;;;;;;;6.76;72.37;99192.42;108030;1256;73685;-63
2023/02/01 04:22:45;;;;;;;40.30;16.90;;;;;;;6.70;72.74;99191.61;108016;1256;60398;-63
2023/02/01 04:25:12;;;;;;;41.80;19.80;;;;;;;6.54;73.29;99194.61;107985;1259;60474;-65
2023/02/01 04:27:39;;;;;;;32.20;15.60;;;;;;;6.54;73.13;99199.69;107946;1257;75077;-65
2023/02/01 04:30:09;;;;;;;40.50;19.30;;;;;;;6.38;73.66;99195.70;107985;1254;60497;-65
2023/02/01 04:32:37;;;;;;;36.20;17.10;;;;;;;6.45;73.18;99197.73;107988;1254;73943;-65
2023/02/01 04:35:04;;;;;;;33.30;16.00;;;;;;;6.45;73.31;99198.96;108065;1254;62391;-65
2023/02/01 04:37:31;;;;;;;39.80;20.20;;;;;;;6.30;73.88;99195.63;108018;1254;60912;-65
2023/02/01 04:39:58;;;;;;;41.50;19.20;;;;;;;6.30;73.57;99197.71;108029;1254;74669;-63
2023/02/01 04:42:26;;;;;;;39.90;19.20;;;;;;;6.39;73.59;99193.58;108036;1254;69848;-64
2023/02/01 04:44:53;;;;;;;45.20;19.40;;;;;;;6.41;73.18;99196.13;108030;1254;73835;-63
2023/02/01 04:47:21;;;;;;;39.50;18.30;;;;;;;6.23;73.86;99193.60;108025;1254;62260;-64
2023/02/01 04:49:48;;;;;;;49.90;20.50;;;;;;;6.49;73.13;99196.73;108050;1254;61554;-65
2023/02/01 04:52:14;;;;;;;37.00;20.00;;;;;;;6.58;72.35;99194.49;108086;1254;74914;-64
2023/02/01 04:54:41;;;;;;;42.30;20.50;;;;;;;6.81;72.04;99194.00;108069;1254;71019;-65
2023/02/01 04:57:07;;;;;;;43.90;21.00;;;;;;;6.81;71.92;99194.87;107985;1254;73702;-65
2023/02/01 04:59:35;;;;;;;44.20;20.40;;;;;;;6.71;71.67;99194.02;108019;1254;62191;-63
2023/02/01 05:02:01;;;;;;;40.90;20.20;;;;;;;6.40;72.68;99199.27;107994;1254;61517;-64
2023/02/01 05:04:29;;;;;;;38.20;18.80;;;;;;;6.03;74.11;99193.06;107972;1254;74591;-64
2023/02/01 05:06:56;;;;;;;32.20;15.70;;;;;;;5.82;75.29;99193.73;108048;1254;71863;-64
2023/02/01 05:09:22;;;;;;;42.00;20.60;;;;;;;5.88;75.08;99194.06;107997;1254;73708;-65
2023/02/01 05:14:35;;;;;;;35.80;20.00;;;;;;;6.06;74.65;99194.87;108009;1254;61592;-65
2023/02/01 05:17:02;;;;;;;45.10;22.10;;;;;;;6.49;73.22;99197.05;108013;1254;74960;-63
2023/02/01 05:19:28;;;;;;;32.30;16.40;;;;;;;6.67;72.59;99190.86;108003;1254;71518;-64
2023/02/01 05:21:55;;;;;;;42.70;20.90;;;;;;;6.24;73.91;99191.98;108083;1254;72701;-64
2023/02/01 05:24:22;;;;;;;46.50;22.50;;;;;;;6.29;73.82;99192.18;108040;1254;62424;-66
2023/02/01 05:26:49;;;;;;;34.30;17.40;;;;;;;6.24;73.96;99191.83;108004;1254;61375;-64
2023/02/01 05:29:16;;;;;;;39.70;20.20;;;;;;;6.17;74.38;99192.06;108021;1256;74694;-64
2023/02/01 05:31:47;;;;;;;42.60;20.80;;;;;;;6.04;74.80;99191.77;108051;1259;69515;-66
2023/02/01 05:34:14;;;;;;;52.10;23.90;;;;;;;5.98;74.83;99186.06;107977;1255;73659;-63
2023/02/01 05:36:41;;;;;;;42.50;20.60;;;;;;;5.78;75.49;99182.89;107980;1256;62131;-65
2023/02/01 05:39:08;;;;;;;43.10;20.90;;;;;;;5.69;75.72;99184.39;107971;1257;60276;-65
2023/02/01 05:41:34;;;;;;;43.10;20.40;;;;;;;5.60;76.41;99182.92;108036;1255;74248;-64
2023/02/01 05:44:02;;;;;;;42.30;18.70;;;;;;;5.62;76.62;99190.54;107994;1257;70617;-64
2023/02/01 05:46:29;;;;;;;49.80;22.20;;;;;;;5.05;79.02;99186.02;108046;1256;71508;-64
2023/02/01 08:44:53;;;;;;;57.30;23.10;;;;;;;5.11;100.00;99127.85;104760;1292;602310;-91
2023/02/01 08:47:23;;;;;;;37.80;18.00;;;;;;;6.32;96.44;99124.42;107308;1266;61298;-91
2023/02/01 08:49:50;;;;;;;40.90;17.50;;;;;;;6.74;86.88;99119.27;107169;1267;59715;-91
2023/02/01 08:52:17;;;;;;;40.70;19.30;;;;;;;7.50;74.43;99113.48;107403;1272;72986;-91
2023/02/01 08:54:44;;;;;;;37.20;17.10;;;;;;;7.93;70.81;99111.73;107126;1266;70343;-92
2023/02/01 08:57:11;;;;;;;38.30;16.60;;;;;;;8.08;66.43;99106.17;107129;1271;133346;-91
2023/02/01 08:59:39;;;;;;;31.00;15.00;;;;;;;8.05;65.70;99102.77;108015;1255;59953;-90
2023/02/01 09:02:10;;;;;;;34.90;15.20;;;;;;;8.55;64.51;99095.39;108119;1255;60309;-90
2023/02/01 09:04:37;;;;;;;35.40;15.50;;;;;;;8.66;62.81;99088.77;108000;1256;73121;-90
2023/02/01 09:07:04;;;;;;;31.80;15.20;;;;;;;8.86;62.50;99084.70;107974;1260;70447;-91
2023/02/01 09:09:32;;;;;;;38.60;15.60;;;;;;;8.69;62.00;99079.89;107983;1256;73686;-90
2023/02/01 09:12:00;;;;;;;36.00;15.60;;;;;;;8.56;61.20;99086.59;107940;1256;59549;-91
2023/02/01 09:14:30;;;;;;;38.50;15.50;;;;;;;8.84;61.42;99079.58;108059;1256;60035;-91
2023/02/01 09:16:59;;;;;;;39.10;16.80;;;;;;;9.25;59.88;99079.72;108575;1256;71888;-91
2023/02/01 09:19:28;;;;;;;31.90;13.60;;;;;;;9.78;59.21;99078.84;108649;1257;71254;-91
2023/02/01 09:21:55;;;;;;;25.10;12.60;;;;;;;10.23;56.11;99072.15;109321;1252;72611;-90
2023/02/01 09:24:22;;;;;;;28.80;13.70;;;;;;;11.00;54.54;99060.42;109475;1252;57354;-93
2023/02/01 09:26:49;;;;;;;31.50;12.50;;;;;;;11.72;54.41;99053.19;109299;1254;58809;-91
2023/02/01 09:29:16;;;;;;;26.70;11.00;;;;;;;12.40;51.58;99050.92;108409;1254;73087;-90
2023/02/01 09:31:43;;;;;;;24.60;9.60;;;;;;;12.13;48.66;99048.49;108439;1254;69494;-91
2023/02/01 09:34:20;;;;;;;21.20;9.30;;;;;;;12.28;46.81;99043.92;108539;1253;73869;-91
2023/02/01 09:36:49;;;;;;;21.00;8.90;;;;;;;12.30;46.18;99034.80;108095;1254;59176;-90
2023/02/01 09:39:16;;;;;;;21.70;8.50;;;;;;;12.55;44.98;99024.62;108252;1252;61035;-90
2023/02/01 09:42:05;;;;;;;16.10;7.80;;;;;;;12.63;43.75;99019.15;108432;1254;72181;-91
2023/02/01 09:44:51;;;;;;;23.00;8.30;;;;;;;12.72;43.31;99009.28;108450;1253;70745;-91
2023/02/01 09:47:24;;;;;;;18.20;7.40;;;;;;;12.66;42.78;99014.58;108649;1253;72292;-90
2023/02/01 09:50:04;;;;;;;19.30;8.30;;;;;;;12.24;42.62;99016.12;108388;1252;59512;-91
2023/02/01 09:52:40;;;;;;;21.70;8.20;;;;;;;12.24;43.12;99007.54;108343;1252;61437;-89
2023/02/01 09:55:15;;;;;;;18.50;8.30;;;;;;;12.67;43.38;99000.25;108315;1252;74379;-90
2023/02/01 09:58:06;;;;;;;20.50;8.80;;;;;;;12.88;41.84;98994.48;108323;1254;68057;-91
2023/02/01 10:00:37;;;;;;;17.70;7.90;;;;;;;12.95;41.02;98996.38;108416;1254;72747;-91
2023/02/01 10:03:05;;;;;;;18.90;8.80;;;;;;;13.02;40.35;98991.48;108274;1253;61293;-91
2023/02/01 10:05:57;;;;;;;18.70;7.70;;;;;;;12.57;40.89;98990.66;108135;1254;59318;-92
2023/02/01 10:08:33;;;;;;;15.10;6.80;;;;;;;11.97;40.41;98993.14;108317;1252;73040;-91
2023/02/01 10:11:21;;;;;;;18.00;8.00;;;;;;;11.85;41.06;98989.16;108497;1253;72053;-92
2023/02/01 10:14:12;;;;;;;17.90;8.60;;;;;;;11.73;41.96;98987.52;108481;1253;72222;-92
2023/02/01 10:16:51;;;;;;;22.20;9.00;;;;;;;11.44;41.84;98990.52;108377;1253;59671;-92
2023/02/01 10:19:41;;;;;;;25.40;8.80;;;;;;;10.49;43.72;98987.92;108604;1252;61673;-91
2023/02/01 10:22:10;;;;;;;20.80;9.30;;;;;;;10.07;45.75;98982.86;108704;1253;71828;-91
2023/02/01 10:24:40;;;;;;;20.30;9.90;;;;;;;10.47;45.69;98979.14;109003;1252;70368;-91
2023/02/01 10:27:10;;;;;;;24.50;10.50;;;;;;;10.37;46.02;98976.50;108834;1252;71721;-89
2023/02/01 10:29:41;;;;;;;21.40;9.90;;;;;;;10.23;46.74;98976.02;109595;1252;59375;-90
2023/02/01 10:32:14;;;;;;;23.70;10.90;;;;;;;10.24;46.78;98975.25;109271;1252;60108;-89
2023/02/01 10:34:43;;;;;;;31.70;10.60;;;;;;;10.06;46.92;98976.58;109295;1253;73158;-88
2023/02/01 10:37:31;;;;;;;31.30;11.40;;;;;;;10.11;47.06;98974.02;109248;1254;68835;-91
2023/02/01 10:40:02;;;;;;;25.40;9.60;;;;;;;9.86;46.52;98975.35;108440;1253;72644;-91
2023/02/01 10:42:31;;;;;;;26.60;9.70;;;;;;;10.02;46.46;98971.17;108454;1253;59588;-89
2023/02/01 10:44:59;;;;;;;22.50;9.10;;;;;;;9.99;46.09;98967.46;108315;1254;60367;-89
2023/02/01 10:47:27;;;;;;;24.80;7.80;;;;;;;9.89;45.96;98970.63;108310;1254;73641;-90
2023/02/01 10:50:15;;;;;;;22.10;7.40;;;;;;;9.49;46.75;98970.95;108619;1254;70528;-89
2023/02/01 10:52:49;;;;;;;18.50;7.10;;;;;;;8.86;48.38;98965.67;108411;1252;72665;-91
2023/02/01 10:55:29;;;;;;;16.70;8.00;;;;;;;8.83;48.84;98963.90;108608;1253;60761;-89
2023/02/01 10:58:02;;;;;;;13.90;5.70;;;;;;;9.08;49.09;98956.90;108444;1254;60140;-89
2023/02/01 11:00:41;;;;;;;18.90;7.40;;;;;;;9.15;48.60;98960.26;108536;1252;72767;-87
2023/02/01 11:03:30;;;;;;;22.60;7.80;;;;;;;9.39;48.21;98962.84;108575;1252;71121;-89
2023/02/01 11:05:59;;;;;;;20.60;9.20;;;;;;;8.44;49.94;98962.25;108383;1253;72693;-88
2023/02/01 11:08:31;;;;;;;15.70;7.80;;;;;;;8.54;50.02;98959.52;108275;1254;61988;-89
2023/02/01 11:11:02;;;;;;;22.70;9.20;;;;;;;8.82;49.59;98957.66;108395;1253;61103;-91
2023/02/01 11:13:33;;;;;;;21.90;8.50;;;;;;;8.86;49.25;98961.84;108403;1252;73108;-90
2023/02/01 11:16:03;;;;;;;17.80;6.90;;;;;;;7.78;50.95;98964.28;108418;1253;70174;-90
2023/02/01 11:18:34;;;;;;;20.30;8.10;;;;;;;7.37;53.58;98967.50;108358;1253;73710;-89
2023/02/01 11:21:02;;;;;;;16.70;7.70;;;;;;;7.61;54.71;98967.86;108310;1253;60630;-91
2023/02/01 11:23:31;;;;;;;18.90;8.70;;;;;;;7.92;54.36;98964.06;108586;1253;60242;-91
2023/02/01 11:25:59;;;;;;;22.40;9.60;;;;;;;8.07;54.66;98968.14;108271;1254;73633;-91
2023/02/01 11:28:32;;;;;;;26.60;11.80;;;;;;;7.93;54.90;98958.42;108268;1253;68858;-90
2023/02/01 11:31:04;;;;;;;25.60;10.80;;;;;;;7.75;55.40;98959.43;108255;1254;73125;-89
2023/02/01 11:33:36;;;;;;;21.00;10.20;;;;;;;7.60;56.42;98955.34;108314;1253;62317;-89
2023/02/01 11:36:09;;;;;;;23.20;10.90;;;;;;;7.81;56.43;98950.92;108509;1254;60290;-89
2023/02/01 11:38:36;;;;;;;25.30;11.10;;;;;;;8.29;55.67;98947.88;108296;1254;74294;-90
2023/02/01 11:41:26;;;;;;;23.00;9.00;;;;;;;8.19;55.37;98946.06;108274;1254;70037;-90
2023/02/01 11:43:56;;;;;;;21.80;10.50;;;;;;;8.43;55.45;98944.24;108273;1253;72578;-90
2023/02/01 11:46:28;;;;;;;14.70;5.50;;;;;;;8.37;56.17;98942.08;108522;1254;60281;-89
2023/02/01 11:48:57;;;;;;;21.80;9.50;;;;;;;8.28;56.85;98942.16;108466;1252;59930;-89
2023/02/01 11:51:50;;;;;;;15.30;6.50;;;;;;;8.26;57.38;98938.41;108947;1252;72994;-91
2023/02/01 11:54:40;;;;;;;17.80;8.20;;;;;;;7.76;59.19;98942.44;109195;1256;70342;-91
2023/02/01 11:57:14;;;;;;;19.70;9.30;;;;;;;8.10;58.97;98938.95;109555;1252;71930;-89
2023/02/01 12:00:03;;;;;;;22.50;9.70;;;;;;;8.30;59.07;98931.05;109476;1252;60869;-89
2023/02/01 12:02:57;;;;;;;22.40;11.00;;;;;;;8.73;58.34;98932.88;109231;1254;59486;-90
2023/02/01 12:05:46;;;;;;;25.70;10.20;;;;;;;8.62;58.62;98928.48;108324;1253;74034;-91
2023/02/01 12:08:44;;;;;;;27.70;11.10;;;;;;;8.47;59.49;98925.71;108362;1254;70509;-90
2023/02/01 12:11:43;;;;;;;22.20;9.60;;;;;;;8.67;59.49;98924.96;108247;1253;71051;-91
2023/02/01 12:14:20;;;;;;;23.70;9.90;;;;;;;8.41;60.07;98925.99;108273;1254;60837;-91
2023/02/01 12:17:04;;;;;;;15.00;7.60;;;;;;;8.60;59.76;98929.82;108298;1253;59467;-92
2023/02/01 12:20:09;;;;;;;26.50;9.80;;;;;;;8.53;59.96;98927.88;108413;1252;72910;-91
2023/02/01 12:22:51;;;;;;;24.90;10.10;;;;;;;8.51;60.15;98926.23;108571;1253;68667;-92
2023/02/01 12:25:42;;;;;;;26.40;10.10;;;;;;;8.70;60.25;98920.29;108417;1252;73865;-90
2023/02/01 12:28:36;;;;;;;25.80;11.10;;;;;;;8.47;61.02;98913.65;108349;1253;60601;-90
2023/02/01 12:31:13;;;;;;;26.70;11.00;;;;;;;8.52;61.86;98913.56;108336;1252;61495;-90
2023/02/01 12:34:01;;;;;;;27.20;13.10;;;;;;;8.68;61.54;98915.64;108380;1254;71647;-91
2023/02/01 12:37:06;;;;;;;28.50;11.80;;;;;;;9.14;60.52;98911.59;108520;1254;70275;-91
2023/02/01 12:39:47;;;;;;;21.90;8.30;;;;;;;9.02;60.47;98915.70;108165;1253;73633;-91
2023/02/01 12:42:36;;;;;;;19.00;9.80;;;;;;;8.76;60.84;98915.74;108384;1254;62502;-91
2023/02/01 12:45:14;;;;;;;29.00;11.50;;;;;;;8.96;60.44;98914.59;108317;1253;61315;-90
2023/02/01 12:47:57;;;;;;;21.60;10.20;;;;;;;8.76;60.85;98911.73;108458;1254;72891;-91
2023/02/01 12:50:28;;;;;;;23.70;10.30;;;;;;;8.65;62.04;98914.68;108092;1254;70517;-90
2023/02/01 12:53:06;;;;;;;20.30;9.80;;;;;;;8.19;62.65;98915.29;108646;1253;72634;-90
2023/02/01 12:55:38;;;;;;;26.50;10.10;;;;;;;7.94;63.95;98914.17;108885;1253;60123;-90
2023/02/01 12:58:21;;;;;;;31.90;12.50;;;;;;;8.37;63.28;98911.83;109128;1252;59989;-91
2023/02/01 13:01:08;;;;;;;23.90;11.60;;;;;;;8.97;61.75;98912.96;109384;1254;71435;-91
2023/02/01 13:03:50;;;;;;;27.80;12.70;;;;;;;9.24;60.64;98908.30;108581;1253;70467;-90
2023/02/01 13:07:00;;;;;;;21.60;11.20;;;;;;;9.44;59.79;98906.55;108314;1253;73722;-90
2023/02/01 13:09:33;;;;;;;29.30;11.10;;;;;;;9.26;60.16;98910.30;108435;1253;62223;-90
2023/02/01 13:12:31;;;;;;;20.10;10.40;;;;;;;9.47;59.62;98908.16;108337;1254;60296;-90
2023/02/01 13:15:10;;;;;;;23.90;9.60;;;;;;;9.74;58.89;98904.10;108316;1254;74066;-89
2023/02/01 13:17:40;;;;;;;21.20;10.70;;;;;;;9.56;59.13;98907.50;108145;1254;71317;-91
2023/02/01 13:20:28;;;;;;;24.50;9.50;;;;;;;9.74;58.92;98901.31;108365;1258;73837;-92
2023/02/01 13:23:24;;;;;;;30.70;13.00;;;;;;;9.88;58.50;98901.27;108327;1252;60903;-91
2023/02/01 13:25:53;;;;;;;18.00;8.10;;;;;;;9.73;58.51;98905.55;108595;1256;59875;-91
2023/02/01 13:28:29;;;;;;;28.90;12.80;;;;;;;9.50;59.15;98903.62;108623;1253;72000;-92
2023/02/01 13:31:19;;;;;;;25.90;11.80;;;;;;;9.53;59.06;98900.84;108820;1252;70096;-88
2023/02/01 13:34:25;;;;;;;20.10;9.00;;;;;;;8.74;61.00;98902.40;108727;1254;72513;-91
2023/02/01 13:37:12;;;;;;;21.60;12.30;;;;;;;9.00;60.81;98898.79;109536;1252;61336;-91
2023/02/01 13:39:57;;;;;;;25.40;12.40;;;;;;;8.97;60.70;98898.42;109690;1252;60110;-89
2023/02/01 13:43:14;;;;;;;25.10;12.30;;;;;;;9.01;61.12;98898.59;108838;1254;72392;-91
2023/02/01 17:40:58;;;;;;;63.70;31.00;;;;;;;2.04;100.00;99006.62;105307;1292;612962;-93
2023/02/01 17:43:48;;;;;;;58.30;28.90;;;;;;;4.32;100.00;99001.77;108029;1266;60966;-96
2023/02/01 17:46:26;;;;;;;;;;;;;;;4.93;100.00;99002.33;108194;1258;61369;-96
2023/02/01 17:49:10;;;;;;;51.00;25.60;;;;;;;4.78;100.00;99001.40;108501;1257;73033;-95
2023/02/01 17:52:24;;;;;;;54.80;27.50;;;;;;;5.04;100.00;99004.40;108300;1258;68528;-96
2023/02/01 17:55:48;;;;;;;;;;;;;;;5.33;100.00;98998.75;107722;1256;71752;-96
2023/02/01 17:59:16;;;;;;;50.40;25.40;;;;;;;5.45;100.00;99003.59;109354;1255;60205;-96
2023/02/01 18:07:47;;;;;;;45.20;23.90;;;;;;;5.66;100.00;98999.19;109564;1256;70794;-94
2023/02/01 18:12:17;;;;;;;39.00;20.80;;;;;;;5.74;100.00;99000.66;108916;1260;67983;-96
2023/02/01 18:16:03;;;;;;;40.90;22.10;;;;;;;5.86;100.00;98995.88;108918;1263;71004;-95
2023/02/01 18:19:57;;;;;;;37.80;21.70;;;;;;;6.29;100.00;98998.17;107896;1257;90289;-66
2023/02/01 18:22:24;;;;;;;38.70;20.60;;;;;;;6.21;100.00;98996.37;107880;1256;60383;-66
2023/02/01 18:24:51;;;;;;;39.70;20.90;;;;;;;6.12;100.00;98997.94;107598;1256;73158;-65
2023/02/01 18:27:18;;;;;;;44.00;22.60;;;;;;;5.93;100.00;99004.17;107906;1256;72834;-65
2023/02/01 18:29:47;;;;;;;50.70;22.90;;;;;;;5.93;100.00;99004.35;107936;1256;73728;-65
2023/02/01 18:32:14;;;;;;;40.40;21.60;;;;;;;6.24;100.00;99003.03;107859;1257;62315;-65
2023/02/01 18:34:41;;;;;;;43.90;20.50;;;;;;;6.29;100.00;99007.94;107886;1256;61529;-66
2023/02/01 18:37:08;;;;;;;45.10;22.00;;;;;;;6.36;100.00;99009.76;107965;1257;73967;-65
2023/02/01 18:39:37;;;;;;;43.60;21.30;;;;;;;6.35;100.00;99007.88;107955;1257;71680;-65
2023/02/01 18:42:09;;;;;;;38.90;21.70;;;;;;;6.23;100.00;99008.14;107885;1257;73916;-65
2023/02/01 18:44:36;;;;;;;51.10;21.00;;;;;;;6.24;100.00;99007.42;107923;1257;59614;-65
2023/02/01 18:47:03;;;;;;;37.50;19.70;;;;;;;6.28;100.00;99011.09;107900;1257;61671;-65
2023/02/01 18:49:31;;;;;;;32.50;18.20;;;;;;;6.32;100.00;99009.05;107896;1257;75652;-65
2023/02/01 18:51:59;;;;;;;43.60;20.10;;;;;;;6.25;100.00;99007.36;107828;1256;70568;-65
2023/02/01 18:54:27;;;;;;;35.90;18.50;;;;;;;6.35;100.00;99006.83;107867;1257;73584;-65
2023/02/01 18:56:55;;;;;;;37.40;18.10;;;;;;;6.32;100.00;99007.48;107774;1260;60218;-66
2023/02/01 18:59:21;;;;;;;40.40;19.50;;;;;;;6.36;100.00;99007.31;107628;1258;61362;-65
2023/02/01 19:01:48;;;;;;;32.70;17.10;;;;;;;6.43;100.00;99004.06;107645;1260;73366;-66
2023/02/01 19:04:15;;;;;;;35.80;19.20;;;;;;;6.34;100.00;99005.32;107640;1260;71134;-66
2023/02/01 19:06:53;;;;;;;38.70;19.00;;;;;;;6.31;100.00;99005.91;107639;1260;72723;-66
2023/02/01 19:09:22;;;;;;;34.20;17.70;;;;;;;6.36;100.00;99003.66;107680;1260;61860;-66
2023/02/01 19:11:49;;;;;;;39.70;17.50;;;;;;;6.59;100.00;99006.81;107653;1259;61293;-66